sensor_id;sensor_type;location;lat;lon;timestamp;P1;durP1;ratioP1;P2;durP2;ratioP2
8399;SDS011;4237;47.030;15.396;2024-03-06T00:01:58;22.17;;;15.57;;
8399;SDS011;4237;47.030;15.396;2024-03-06T00:04:26;22.00;;;16.50;;
8399;SDS011;4237;47.030;15.396;2024-03-06T00:06:55;24.30;;;17.47;;
8399;SDS011;4237;47.030;15.396;2024-03-06T00:09:24;22.47;;;15.73;;
8399;SDS011;4237;47.030;15.396;2024-03-06T00:11:56;22.27;;;15.50;;
8399;SDS011;4237;47.030;15.396;2024-03-06T00:14:25;22.37;;;16.30;;
8399;SDS011;4237;47.030;15.396;2024-03-06T00:16:54;22.90;;;16.77;;
8399;SDS011;4237;47.030;15.396;2024-03-06T00:19:25;21.27;;;15.93;;
8399;SDS011;4237;47.030;15.396;2024-03-06T00:21:54;28.57;;;17.83;;
8399;SDS011;4237;47.030;15.396;2024-03-06T00:24:22;24.63;;;16.97;;
8399;SDS011;4237;47.030;15.396;2024-03-06T00:26:51;22.03;;;16.07;;
8399;SDS011;4237;47.030;15.396;2024-03-06T00:29:20;23.40;;;15.87;;
8399;SDS011;4237;47.030;15.396;2024-03-06T00:31:48;22.43;;;16.67;;
8399;SDS011;4237;47.030;15.396;2024-03-06T00:34:17;22.50;;;16.57;;
8399;SDS011;4237;47.030;15.396;2024-03-06T00:36:45;22.53;;;16.63;;
8399;SDS011;4237;47.030;15.396;2024-03-06T00:39:14;25.20;;;17.17;;
8399;SDS011;4237;47.030;15.396;2024-03-06T00:41:43;24.43;;;17.37;;
8399;SDS011;4237;47.030;15.396;2024-03-06T00:44:12;23.60;;;16.67;;
8399;SDS011;4237;47.030;15.396;2024-03-06T00:46:41;22.00;;;16.40;;
8399;SDS011;4237;47.030;15.396;2024-03-06T00:49:10;28.13;;;17.70;;
8399;SDS011;4237;47.030;15.396;2024-03-06T00:51:38;26.13;;;18.67;;
8399;SDS011;4237;47.030;15.396;2024-03-06T00:54:07;25.43;;;17.80;;
8399;SDS011;4237;47.030;15.396;2024-03-06T00:56:38;22.63;;;17.50;;
8399;SDS011;4237;47.030;15.396;2024-03-06T00:59:07;21.83;;;15.80;;
8399;SDS011;4237;47.030;15.396;2024-03-06T01:01:35;22.17;;;17.17;;
8399;SDS011;4237;47.030;15.396;2024-03-06T01:04:04;24.23;;;18.27;;
8399;SDS011;4237;47.030;15.396;2024-03-06T01:06:33;23.47;;;16.90;;
8399;SDS011;4237;47.030;15.396;2024-03-06T01:09:01;22.07;;;17.37;;
8399;SDS011;4237;47.030;15.396;2024-03-06T01:11:30;24.03;;;16.70;;
8399;SDS011;4237;47.030;15.396;2024-03-06T01:13:58;27.17;;;19.07;;
8399;SDS011;4237;47.030;15.396;2024-03-06T01:16:29;24.77;;;18.77;;
8399;SDS011;4237;47.030;15.396;2024-03-06T01:18:57;23.53;;;17.10;;
8399;SDS011;4237;47.030;15.396;2024-03-06T01:21:26;25.90;;;18.37;;
8399;SDS011;4237;47.030;15.396;2024-03-06T01:23:55;23.00;;;17.87;;
8399;SDS011;4237;47.030;15.396;2024-03-06T01:26:24;24.43;;;18.43;;
8399;SDS011;4237;47.030;15.396;2024-03-06T01:28:52;24.10;;;17.43;;
8399;SDS011;4237;47.030;15.396;2024-03-06T01:31:21;25.40;;;17.97;;
8399;SDS011;4237;47.030;15.396;2024-03-06T01:33:50;23.20;;;17.53;;
8399;SDS011;4237;47.030;15.396;2024-03-06T01:36:18;22.73;;;16.93;;
8399;SDS011;4237;47.030;15.396;2024-03-06T01:38:47;26.80;;;18.03;;
8399;SDS011;4237;47.030;15.396;2024-03-06T01:41:15;26.83;;;18.90;;
8399;SDS011;4237;47.030;15.396;2024-03-06T01:43:44;22.57;;;17.40;;
8399;SDS011;4237;47.030;15.396;2024-03-06T01:46:13;26.07;;;17.83;;
8399;SDS011;4237;47.030;15.396;2024-03-06T01:48:42;24.73;;;19.20;;
8399;SDS011;4237;47.030;15.396;2024-03-06T01:51:10;27.80;;;19.30;;
8399;SDS011;4237;47.030;15.396;2024-03-06T01:53:40;23.57;;;18.57;;
8399;SDS011;4237;47.030;15.396;2024-03-06T01:56:08;29.43;;;20.67;;
8399;SDS011;4237;47.030;15.396;2024-03-06T01:58:38;28.30;;;19.83;;
8399;SDS011;4237;47.030;15.396;2024-03-06T02:01:08;25.33;;;18.50;;
8399;SDS011;4237;47.030;15.396;2024-03-06T02:03:37;25.83;;;18.03;;
8399;SDS011;4237;47.030;15.396;2024-03-06T02:06:06;24.93;;;18.23;;
8399;SDS011;4237;47.030;15.396;2024-03-06T02:08:35;25.87;;;18.83;;
8399;SDS011;4237;47.030;15.396;2024-03-06T02:11:03;25.97;;;19.40;;
8399;SDS011;4237;47.030;15.396;2024-03-06T02:13:33;26.10;;;18.80;;
8399;SDS011;4237;47.030;15.396;2024-03-06T02:16:02;32.60;;;23.03;;
8399;SDS011;4237;47.030;15.396;2024-03-06T02:18:31;26.87;;;21.47;;
8399;SDS011;4237;47.030;15.396;2024-03-06T02:20:59;30.07;;;21.17;;
8399;SDS011;4237;47.030;15.396;2024-03-06T02:23:28;27.47;;;20.40;;
8399;SDS011;4237;47.030;15.396;2024-03-06T02:25:56;29.03;;;20.33;;
8399;SDS011;4237;47.030;15.396;2024-03-06T02:28:25;27.13;;;20.07;;
8399;SDS011;4237;47.030;15.396;2024-03-06T02:30:54;27.87;;;20.67;;
8399;SDS011;4237;47.030;15.396;2024-03-06T02:33:23;29.73;;;20.60;;
8399;SDS011;4237;47.030;15.396;2024-03-06T02:35:51;30.17;;;19.90;;
8399;SDS011;4237;47.030;15.396;2024-03-06T02:38:20;26.93;;;19.97;;
8399;SDS011;4237;47.030;15.396;2024-03-06T02:40:49;30.33;;;20.60;;
8399;SDS011;4237;47.030;15.396;2024-03-06T02:43:17;25.13;;;20.13;;
8399;SDS011;4237;47.030;15.396;2024-03-06T02:45:46;28.07;;;19.53;;
8399;SDS011;4237;47.030;15.396;2024-03-06T02:48:14;29.73;;;20.37;;
8399;SDS011;4237;47.030;15.396;2024-03-06T02:50:43;26.50;;;19.23;;
8399;SDS011;4237;47.030;15.396;2024-03-06T02:53:12;27.33;;;19.97;;
8399;SDS011;4237;47.030;15.396;2024-03-06T02:55:41;30.40;;;20.87;;
8399;SDS011;4237;47.030;15.396;2024-03-06T02:58:10;30.23;;;21.70;;
8399;SDS011;4237;47.030;15.396;2024-03-06T03:00:41;26.73;;;19.90;;
8399;SDS011;4237;47.030;15.396;2024-03-06T03:03:11;29.77;;;20.60;;
8399;SDS011;4237;47.030;15.396;2024-03-06T03:05:39;30.27;;;21.53;;
8399;SDS011;4237;47.030;15.396;2024-03-06T03:08:08;32.60;;;21.87;;
8399;SDS011;4237;47.030;15.396;2024-03-06T03:10:37;25.57;;;20.07;;
8399;SDS011;4237;47.030;15.396;2024-03-06T03:13:05;30.70;;;22.00;;
8399;SDS011;4237;47.030;15.396;2024-03-06T03:15:34;33.03;;;21.13;;
8399;SDS011;4237;47.030;15.396;2024-03-06T03:18:02;28.37;;;20.87;;
8399;SDS011;4237;47.030;15.396;2024-03-06T03:20:31;28.77;;;20.50;;
8399;SDS011;4237;47.030;15.396;2024-03-06T03:23:00;30.13;;;21.40;;
8399;SDS011;4237;47.030;15.396;2024-03-06T03:25:28;29.03;;;22.83;;
8399;SDS011;4237;47.030;15.396;2024-03-06T03:27:57;27.77;;;21.03;;
8399;SDS011;4237;47.030;15.396;2024-03-06T03:30:25;29.93;;;21.03;;
8399;SDS011;4237;47.030;15.396;2024-03-06T03:32:54;32.73;;;22.73;;
8399;SDS011;4237;47.030;15.396;2024-03-06T03:35:23;29.30;;;21.33;;
8399;SDS011;4237;47.030;15.396;2024-03-06T03:37:55;28.90;;;20.73;;
8399;SDS011;4237;47.030;15.396;2024-03-06T03:40:23;28.97;;;21.33;;
8399;SDS011;4237;47.030;15.396;2024-03-06T03:42:52;28.90;;;21.43;;
8399;SDS011;4237;47.030;15.396;2024-03-06T03:45:20;29.83;;;20.50;;
8399;SDS011;4237;47.030;15.396;2024-03-06T03:47:49;27.90;;;19.83;;
8399;SDS011;4237;47.030;15.396;2024-03-06T03:50:17;28.40;;;20.47;;
8399;SDS011;4237;47.030;15.396;2024-03-06T03:52:46;31.50;;;21.00;;
8399;SDS011;4237;47.030;15.396;2024-03-06T03:55:14;27.47;;;21.00;;
8399;SDS011;4237;47.030;15.396;2024-03-06T03:57:43;26.43;;;19.77;;
8399;SDS011;4237;47.030;15.396;2024-03-06T04:00:12;25.17;;;18.97;;
8399;SDS011;4237;47.030;15.396;2024-03-06T04:02:41;26.50;;;19.33;;
8399;SDS011;4237;47.030;15.396;2024-03-06T04:05:10;26.63;;;19.67;;
8399;SDS011;4237;47.030;15.396;2024-03-06T04:07:39;26.50;;;20.73;;
8399;SDS011;4237;47.030;15.396;2024-03-06T04:10:08;28.37;;;20.70;;
8399;SDS011;4237;47.030;15.396;2024-03-06T04:12:37;29.80;;;22.63;;
8399;SDS011;4237;47.030;15.396;2024-03-06T04:15:06;28.30;;;22.27;;
8399;SDS011;4237;47.030;15.396;2024-03-06T04:17:35;28.63;;;21.93;;
8399;SDS011;4237;47.030;15.396;2024-03-06T04:20:04;31.13;;;22.50;;
8399;SDS011;4237;47.030;15.396;2024-03-06T04:22:33;30.93;;;23.47;;
8399;SDS011;4237;47.030;15.396;2024-03-06T04:25:02;31.97;;;21.90;;
8399;SDS011;4237;47.030;15.396;2024-03-06T04:27:31;30.87;;;23.00;;
8399;SDS011;4237;47.030;15.396;2024-03-06T04:30:00;29.90;;;22.00;;
8399;SDS011;4237;47.030;15.396;2024-03-06T04:32:29;27.90;;;21.53;;
8399;SDS011;4237;47.030;15.396;2024-03-06T04:34:58;30.43;;;22.10;;
8399;SDS011;4237;47.030;15.396;2024-03-06T04:37:26;28.37;;;21.47;;
8399;SDS011;4237;47.030;15.396;2024-03-06T04:39:56;28.60;;;20.10;;
8399;SDS011;4237;47.030;15.396;2024-03-06T04:42:24;28.77;;;20.07;;
8399;SDS011;4237;47.030;15.396;2024-03-06T04:44:53;28.63;;;19.60;;
8399;SDS011;4237;47.030;15.396;2024-03-06T04:47:23;25.77;;;20.13;;
8399;SDS011;4237;47.030;15.396;2024-03-06T04:49:52;25.03;;;18.10;;
8399;SDS011;4237;47.030;15.396;2024-03-06T04:52:20;24.20;;;18.50;;
8399;SDS011;4237;47.030;15.396;2024-03-06T04:54:49;24.60;;;18.80;;
8399;SDS011;4237;47.030;15.396;2024-03-06T04:57:17;21.50;;;18.10;;
8399;SDS011;4237;47.030;15.396;2024-03-06T04:59:46;24.57;;;18.77;;
8399;SDS011;4237;47.030;15.396;2024-03-06T05:02:14;24.70;;;18.40;;
8399;SDS011;4237;47.030;15.396;2024-03-06T05:04:43;23.67;;;17.87;;
8399;SDS011;4237;47.030;15.396;2024-03-06T05:07:13;23.03;;;17.30;;
8399;SDS011;4237;47.030;15.396;2024-03-06T05:09:42;27.50;;;17.33;;
8399;SDS011;4237;47.030;15.396;2024-03-06T05:12:10;22.27;;;17.50;;
8399;SDS011;4237;47.030;15.396;2024-03-06T05:14:39;21.27;;;15.80;;
8399;SDS011;4237;47.030;15.396;2024-03-06T05:17:07;23.83;;;16.33;;
8399;SDS011;4237;47.030;15.396;2024-03-06T05:19:37;22.23;;;16.30;;
8399;SDS011;4237;47.030;15.396;2024-03-06T05:22:06;20.57;;;16.23;;
8399;SDS011;4237;47.030;15.396;2024-03-06T05:24:34;23.30;;;15.67;;
8399;SDS011;4237;47.030;15.396;2024-03-06T05:27:03;23.60;;;16.00;;
8399;SDS011;4237;47.030;15.396;2024-03-06T05:29:32;22.83;;;15.90;;
8399;SDS011;4237;47.030;15.396;2024-03-06T05:32:03;23.70;;;16.57;;
8399;SDS011;4237;47.030;15.396;2024-03-06T05:34:31;21.83;;;16.43;;
8399;SDS011;4237;47.030;15.396;2024-03-06T05:37:02;19.33;;;15.13;;
8399;SDS011;4237;47.030;15.396;2024-03-06T05:39:31;18.57;;;14.23;;
8399;SDS011;4237;47.030;15.396;2024-03-06T05:42:01;18.47;;;14.87;;
8399;SDS011;4237;47.030;15.396;2024-03-06T05:44:30;20.67;;;15.30;;
8399;SDS011;4237;47.030;15.396;2024-03-06T05:46:59;19.40;;;14.90;;
8399;SDS011;4237;47.030;15.396;2024-03-06T05:49:29;20.87;;;14.77;;
8399;SDS011;4237;47.030;15.396;2024-03-06T05:51:59;20.33;;;15.80;;
8399;SDS011;4237;47.030;15.396;2024-03-06T05:54:28;22.20;;;15.60;;
8399;SDS011;4237;47.030;15.396;2024-03-06T05:56:58;26.93;;;16.97;;
8399;SDS011;4237;47.030;15.396;2024-03-06T05:59:26;20.20;;;15.00;;
8399;SDS011;4237;47.030;15.396;2024-03-06T06:01:55;17.93;;;14.63;;
8399;SDS011;4237;47.030;15.396;2024-03-06T06:04:24;20.07;;;14.27;;
8399;SDS011;4237;47.030;15.396;2024-03-06T06:06:52;19.10;;;13.20;;
8399;SDS011;4237;47.030;15.396;2024-03-06T06:09:21;19.97;;;13.20;;
8399;SDS011;4237;47.030;15.396;2024-03-06T06:11:49;19.30;;;12.77;;
8399;SDS011;4237;47.030;15.396;2024-03-06T06:14:18;17.90;;;13.50;;
8399;SDS011;4237;47.030;15.396;2024-03-06T06:16:47;19.33;;;13.37;;
8399;SDS011;4237;47.030;15.396;2024-03-06T06:19:15;19.30;;;14.80;;
8399;SDS011;4237;47.030;15.396;2024-03-06T06:21:44;29.90;;;17.67;;
8399;SDS011;4237;47.030;15.396;2024-03-06T06:24:14;18.70;;;14.57;;
8399;SDS011;4237;47.030;15.396;2024-03-06T06:26:42;16.80;;;12.60;;
8399;SDS011;4237;47.030;15.396;2024-03-06T06:29:11;17.23;;;12.17;;
8399;SDS011;4237;47.030;15.396;2024-03-06T06:31:39;17.07;;;11.00;;
8399;SDS011;4237;47.030;15.396;2024-03-06T06:34:08;17.50;;;12.00;;
8399;SDS011;4237;47.030;15.396;2024-03-06T06:36:37;18.67;;;13.27;;
8399;SDS011;4237;47.030;15.396;2024-03-06T06:39:07;20.93;;;13.77;;
8399;SDS011;4237;47.030;15.396;2024-03-06T06:41:38;18.10;;;13.90;;
8399;SDS011;4237;47.030;15.396;2024-03-06T06:44:06;22.97;;;14.33;;
8399;SDS011;4237;47.030;15.396;2024-03-06T06:46:35;18.77;;;13.87;;
8399;SDS011;4237;47.030;15.396;2024-03-06T06:49:03;18.60;;;13.57;;
8399;SDS011;4237;47.030;15.396;2024-03-06T06:51:32;17.47;;;13.43;;
8399;SDS011;4237;47.030;15.396;2024-03-06T06:54:01;21.57;;;13.60;;
8399;SDS011;4237;47.030;15.396;2024-03-06T06:56:31;20.27;;;15.20;;
8399;SDS011;4237;47.030;15.396;2024-03-06T06:58:59;24.70;;;16.47;;
8399;SDS011;4237;47.030;15.396;2024-03-06T07:01:28;18.30;;;14.80;;
8399;SDS011;4237;47.030;15.396;2024-03-06T07:03:57;22.57;;;14.70;;
8399;SDS011;4237;47.030;15.396;2024-03-06T07:06:25;21.97;;;14.23;;
8399;SDS011;4237;47.030;15.396;2024-03-06T07:08:54;23.23;;;14.53;;
8399;SDS011;4237;47.030;15.396;2024-03-06T07:11:22;20.40;;;15.00;;
8399;SDS011;4237;47.030;15.396;2024-03-06T07:13:52;24.30;;;14.47;;
8399;SDS011;4237;47.030;15.396;2024-03-06T07:16:20;19.97;;;14.10;;
8399;SDS011;4237;47.030;15.396;2024-03-06T07:18:49;18.90;;;13.57;;
8399;SDS011;4237;47.030;15.396;2024-03-06T07:21:17;19.23;;;14.50;;
8399;SDS011;4237;47.030;15.396;2024-03-06T07:23:46;20.67;;;14.13;;
8399;SDS011;4237;47.030;15.396;2024-03-06T07:26:14;20.03;;;14.67;;
8399;SDS011;4237;47.030;15.396;2024-03-06T07:28:43;20.37;;;14.90;;
8399;SDS011;4237;47.030;15.396;2024-03-06T07:31:11;19.70;;;14.20;;
8399;SDS011;4237;47.030;15.396;2024-03-06T07:33:40;24.37;;;15.00;;
8399;SDS011;4237;47.030;15.396;2024-03-06T07:36:08;21.20;;;15.03;;
8399;SDS011;4237;47.030;15.396;2024-03-06T07:38:37;21.93;;;14.47;;
8399;SDS011;4237;47.030;15.396;2024-03-06T07:41:06;23.03;;;15.37;;
8399;SDS011;4237;47.030;15.396;2024-03-06T07:43:34;17.90;;;13.93;;
8399;SDS011;4237;47.030;15.396;2024-03-06T07:46:03;15.53;;;12.60;;
8399;SDS011;4237;47.030;15.396;2024-03-06T07:48:33;20.33;;;13.67;;
8399;SDS011;4237;47.030;15.396;2024-03-06T07:51:02;18.90;;;12.70;;
8399;SDS011;4237;47.030;15.396;2024-03-06T07:53:31;17.77;;;13.07;;
8399;SDS011;4237;47.030;15.396;2024-03-06T07:55:59;19.60;;;12.40;;
8399;SDS011;4237;47.030;15.396;2024-03-06T07:58:29;18.43;;;11.83;;
8399;SDS011;4237;47.030;15.396;2024-03-06T08:00:58;20.07;;;13.67;;
8399;SDS011;4237;47.030;15.396;2024-03-06T08:03:27;20.07;;;12.80;;
8399;SDS011;4237;47.030;15.396;2024-03-06T08:05:55;18.07;;;12.47;;
8399;SDS011;4237;47.030;15.396;2024-03-06T08:08:24;22.07;;;13.37;;
8399;SDS011;4237;47.030;15.396;2024-03-06T08:10:52;18.60;;;12.73;;
8399;SDS011;4237;47.030;15.396;2024-03-06T08:13:21;21.10;;;13.77;;
8399;SDS011;4237;47.030;15.396;2024-03-06T08:15:49;21.10;;;13.57;;
8399;SDS011;4237;47.030;15.396;2024-03-06T08:18:19;19.67;;;13.83;;
8399;SDS011;4237;47.030;15.396;2024-03-06T08:20:48;20.33;;;14.10;;
8399;SDS011;4237;47.030;15.396;2024-03-06T08:23:16;17.27;;;13.10;;
8399;SDS011;4237;47.030;15.396;2024-03-06T08:25:45;18.67;;;13.73;;
8399;SDS011;4237;47.030;15.396;2024-03-06T08:28:14;20.27;;;14.10;;
8399;SDS011;4237;47.030;15.396;2024-03-06T08:30:42;24.60;;;14.23;;
8399;SDS011;4237;47.030;15.396;2024-03-06T08:33:11;17.50;;;13.27;;
8399;SDS011;4237;47.030;15.396;2024-03-06T08:35:39;19.90;;;13.67;;
8399;SDS011;4237;47.030;15.396;2024-03-06T08:38:08;18.40;;;13.33;;
8399;SDS011;4237;47.030;15.396;2024-03-06T08:40:37;19.90;;;14.67;;
8399;SDS011;4237;47.030;15.396;2024-03-06T08:43:05;20.17;;;14.23;;
8399;SDS011;4237;47.030;15.396;2024-03-06T08:45:35;22.20;;;14.67;;
8399;SDS011;4237;47.030;15.396;2024-03-06T08:48:04;23.60;;;15.57;;
8399;SDS011;4237;47.030;15.396;2024-03-06T08:50:33;20.60;;;14.30;;
8399;SDS011;4237;47.030;15.396;2024-03-06T08:53:01;24.57;;;16.00;;
8399;SDS011;4237;47.030;15.396;2024-03-06T08:55:30;21.97;;;16.37;;
8399;SDS011;4237;47.030;15.396;2024-03-06T08:57:58;26.77;;;15.93;;
8399;SDS011;4237;47.030;15.396;2024-03-06T09:00:28;23.17;;;16.67;;
8399;SDS011;4237;47.030;15.396;2024-03-06T09:02:56;22.00;;;15.93;;
8399;SDS011;4237;47.030;15.396;2024-03-06T09:05:26;25.73;;;17.73;;
8399;SDS011;4237;47.030;15.396;2024-03-06T09:07:54;32.73;;;18.60;;
8399;SDS011;4237;47.030;15.396;2024-03-06T09:10:24;28.20;;;19.57;;
8399;SDS011;4237;47.030;15.396;2024-03-06T09:12:52;27.07;;;21.03;;
8399;SDS011;4237;47.030;15.396;2024-03-06T09:15:21;28.17;;;21.93;;
8399;SDS011;4237;47.030;15.396;2024-03-06T09:17:51;29.47;;;21.60;;
8399;SDS011;4237;47.030;15.396;2024-03-06T09:20:19;31.17;;;21.23;;
8399;SDS011;4237;47.030;15.396;2024-03-06T09:22:49;27.83;;;20.87;;
8399;SDS011;4237;47.030;15.396;2024-03-06T09:25:20;33.23;;;23.10;;
8399;SDS011;4237;47.030;15.396;2024-03-06T09:27:48;30.97;;;22.73;;
8399;SDS011;4237;47.030;15.396;2024-03-06T09:30:17;28.97;;;21.90;;
8399;SDS011;4237;47.030;15.396;2024-03-06T09:32:45;27.10;;;21.23;;
8399;SDS011;4237;47.030;15.396;2024-03-06T09:35:14;31.17;;;21.90;;
8399;SDS011;4237;47.030;15.396;2024-03-06T09:37:44;30.83;;;20.80;;
8399;SDS011;4237;47.030;15.396;2024-03-06T09:40:19;27.27;;;21.20;;
8399;SDS011;4237;47.030;15.396;2024-03-06T09:42:49;33.50;;;24.37;;
8399;SDS011;4237;47.030;15.396;2024-03-06T09:45:18;32.60;;;24.73;;
8399;SDS011;4237;47.030;15.396;2024-03-06T09:47:49;34.27;;;24.23;;
8399;SDS011;4237;47.030;15.396;2024-03-06T09:50:19;34.13;;;23.70;;
8399;SDS011;4237;47.030;15.396;2024-03-06T09:52:53;33.97;;;25.13;;
8399;SDS011;4237;47.030;15.396;2024-03-06T09:55:23;33.97;;;24.10;;
8399;SDS011;4237;47.030;15.396;2024-03-06T09:57:54;34.13;;;24.47;;
8399;SDS011;4237;47.030;15.396;2024-03-06T10:00:22;31.67;;;23.30;;
8399;SDS011;4237;47.030;15.396;2024-03-06T10:02:58;31.63;;;23.50;;
8399;SDS011;4237;47.030;15.396;2024-03-06T10:05:27;31.07;;;23.40;;
8399;SDS011;4237;47.030;15.396;2024-03-06T10:07:57;29.23;;;23.03;;
8399;SDS011;4237;47.030;15.396;2024-03-06T10:10:26;32.23;;;24.10;;
8399;SDS011;4237;47.030;15.396;2024-03-06T10:12:55;28.20;;;21.97;;
8399;SDS011;4237;47.030;15.396;2024-03-06T10:15:27;34.10;;;23.33;;
8399;SDS011;4237;47.030;15.396;2024-03-06T10:18:17;31.93;;;24.13;;
8399;SDS011;4237;47.030;15.396;2024-03-06T10:20:44;31.37;;;23.00;;
8399;SDS011;4237;47.030;15.396;2024-03-06T10:23:12;33.43;;;23.37;;
8399;SDS011;4237;47.030;15.396;2024-03-06T10:25:44;32.07;;;23.20;;
8399;SDS011;4237;47.030;15.396;2024-03-06T10:28:13;31.03;;;23.00;;
8399;SDS011;4237;47.030;15.396;2024-03-06T10:30:43;31.60;;;23.23;;
8399;SDS011;4237;47.030;15.396;2024-03-06T10:33:13;26.87;;;21.23;;
8399;SDS011;4237;47.030;15.396;2024-03-06T10:35:43;32.60;;;22.27;;
8399;SDS011;4237;47.030;15.396;2024-03-06T10:38:13;30.23;;;22.63;;
8399;SDS011;4237;47.030;15.396;2024-03-06T10:40:43;30.77;;;22.90;;
8399;SDS011;4237;47.030;15.396;2024-03-06T10:43:12;27.10;;;22.17;;
8399;SDS011;4237;47.030;15.396;2024-03-06T10:45:41;27.80;;;22.30;;
8399;SDS011;4237;47.030;15.396;2024-03-06T10:48:15;29.00;;;21.73;;
8399;SDS011;4237;47.030;15.396;2024-03-06T10:50:46;28.13;;;21.97;;
8399;SDS011;4237;47.030;15.396;2024-03-06T10:53:16;31.57;;;22.00;;
8399;SDS011;4237;47.030;15.396;2024-03-06T10:55:46;27.17;;;20.67;;
8399;SDS011;4237;47.030;15.396;2024-03-06T10:58:14;29.13;;;21.30;;
8399;SDS011;4237;47.030;15.396;2024-03-06T11:00:46;29.90;;;21.97;;
8399;SDS011;4237;47.030;15.396;2024-03-06T11:03:15;28.83;;;21.50;;
8399;SDS011;4237;47.030;15.396;2024-03-06T11:05:45;25.47;;;20.53;;
8399;SDS011;4237;47.030;15.396;2024-03-06T11:08:18;28.03;;;20.80;;
8399;SDS011;4237;47.030;15.396;2024-03-06T11:10:47;27.90;;;20.73;;
8399;SDS011;4237;47.030;15.396;2024-03-06T11:15:51;26.00;;;20.27;;
8399;SDS011;4237;47.030;15.396;2024-03-06T11:24:23;27.17;;;19.40;;
8399;SDS011;4237;47.030;15.396;2024-03-06T11:26:29;24.20;;;19.50;;
8399;SDS011;4237;47.030;15.396;2024-03-06T11:28:59;25.80;;;20.50;;
8399;SDS011;4237;47.030;15.396;2024-03-06T11:31:28;26.43;;;20.93;;
8399;SDS011;4237;47.030;15.396;2024-03-06T11:33:58;25.23;;;20.40;;
8399;SDS011;4237;47.030;15.396;2024-03-06T11:36:30;28.63;;;22.13;;
8399;SDS011;4237;47.030;15.396;2024-03-06T11:39:00;26.20;;;20.33;;
8399;SDS011;4237;47.030;15.396;2024-03-06T11:44:15;26.23;;;21.07;;
8399;SDS011;4237;47.030;15.396;2024-03-06T11:46:46;28.50;;;21.67;;
8399;SDS011;4237;47.030;15.396;2024-03-06T11:49:28;27.20;;;21.70;;
8399;SDS011;4237;47.030;15.396;2024-03-06T11:51:56;25.60;;;20.63;;
8399;SDS011;4237;47.030;15.396;2024-03-06T11:54:26;27.97;;;21.20;;
8399;SDS011;4237;47.030;15.396;2024-03-06T11:56:58;28.93;;;22.00;;
8399;SDS011;4237;47.030;15.396;2024-03-06T12:02:00;25.07;;;20.30;;
8399;SDS011;4237;47.030;15.396;2024-03-06T12:04:33;27.00;;;21.00;;
8399;SDS011;4237;47.030;15.396;2024-03-06T12:07:03;29.47;;;21.87;;
8399;SDS011;4237;47.030;15.396;2024-03-06T12:09:32;27.07;;;21.47;;
8399;SDS011;4237;47.030;15.396;2024-03-06T12:12:02;26.40;;;21.30;;
8399;SDS011;4237;47.030;15.396;2024-03-06T12:14:31;25.60;;;21.27;;
8399;SDS011;4237;47.030;15.396;2024-03-06T12:17:03;25.20;;;20.80;;
8399;SDS011;4237;47.030;15.396;2024-03-06T12:19:31;27.57;;;21.63;;
8399;SDS011;4237;47.030;15.396;2024-03-06T12:22:01;27.40;;;21.70;;
8399;SDS011;4237;47.030;15.396;2024-03-06T12:24:33;27.87;;;22.17;;
8399;SDS011;4237;47.030;15.396;2024-03-06T12:27:05;26.33;;;21.67;;
8399;SDS011;4237;47.030;15.396;2024-03-06T12:29:35;24.30;;;20.17;;
8399;SDS011;4237;47.030;15.396;2024-03-06T12:32:04;25.20;;;20.03;;
8399;SDS011;4237;47.030;15.396;2024-03-06T12:34:34;24.40;;;20.60;;
8399;SDS011;4237;47.030;15.396;2024-03-06T12:37:08;25.03;;;20.10;;
8399;SDS011;4237;47.030;15.396;2024-03-06T12:39:37;26.73;;;21.37;;
8399;SDS011;4237;47.030;15.396;2024-03-06T12:42:06;24.80;;;20.87;;
8399;SDS011;4237;47.030;15.396;2024-03-06T12:44:34;24.43;;;20.57;;
8399;SDS011;4237;47.030;15.396;2024-03-06T12:47:03;23.53;;;20.50;;
8399;SDS011;4237;47.030;15.396;2024-03-06T12:49:33;25.73;;;20.67;;
8399;SDS011;4237;47.030;15.396;2024-03-06T12:52:01;24.13;;;20.57;;
8399;SDS011;4237;47.030;15.396;2024-03-06T12:54:31;24.00;;;19.67;;
8399;SDS011;4237;47.030;15.396;2024-03-06T12:57:00;23.40;;;19.17;;
8399;SDS011;4237;47.030;15.396;2024-03-06T12:59:29;20.93;;;18.23;;
8399;SDS011;4237;47.030;15.396;2024-03-06T13:01:58;21.73;;;19.10;;
8399;SDS011;4237;47.030;15.396;2024-03-06T13:04:26;21.20;;;18.07;;
8399;SDS011;4237;47.030;15.396;2024-03-06T13:06:55;21.50;;;19.20;;
8399;SDS011;4237;47.030;15.396;2024-03-06T13:09:24;20.17;;;18.07;;
8399;SDS011;4237;47.030;15.396;2024-03-06T13:11:52;23.50;;;18.43;;
8399;SDS011;4237;47.030;15.396;2024-03-06T13:14:21;20.67;;;18.43;;
8399;SDS011;4237;47.030;15.396;2024-03-06T13:16:49;20.17;;;18.07;;
8399;SDS011;4237;47.030;15.396;2024-03-06T13:19:18;17.20;;;15.37;;
8399;SDS011;4237;47.030;15.396;2024-03-06T13:21:46;18.83;;;16.27;;
8399;SDS011;4237;47.030;15.396;2024-03-06T13:24:15;18.17;;;15.67;;
8399;SDS011;4237;47.030;15.396;2024-03-06T13:26:44;17.00;;;15.27;;
8399;SDS011;4237;47.030;15.396;2024-03-06T13:29:13;19.53;;;17.40;;
8399;SDS011;4237;47.030;15.396;2024-03-06T13:31:43;19.80;;;17.67;;
8399;SDS011;4237;47.030;15.396;2024-03-06T13:34:12;19.67;;;17.57;;
8399;SDS011;4237;47.030;15.396;2024-03-06T13:36:40;18.80;;;16.80;;
8399;SDS011;4237;47.030;15.396;2024-03-06T13:39:10;19.73;;;17.10;;
8399;SDS011;4237;47.030;15.396;2024-03-06T13:41:39;22.30;;;17.83;;
8399;SDS011;4237;47.030;15.396;2024-03-06T13:44:07;18.93;;;16.77;;
8399;SDS011;4237;47.030;15.396;2024-03-06T13:46:36;19.07;;;16.80;;
8399;SDS011;4237;47.030;15.396;2024-03-06T13:49:04;22.00;;;17.87;;
8399;SDS011;4237;47.030;15.396;2024-03-06T13:51:33;20.00;;;17.60;;
8399;SDS011;4237;47.030;15.396;2024-03-06T13:54:01;19.03;;;16.40;;
8399;SDS011;4237;47.030;15.396;2024-03-06T13:56:30;21.30;;;17.53;;
8399;SDS011;4237;47.030;15.396;2024-03-06T13:58:59;25.30;;;18.77;;
8399;SDS011;4237;47.030;15.396;2024-03-06T14:01:27;22.07;;;17.97;;
8399;SDS011;4237;47.030;15.396;2024-03-06T14:03:56;20.37;;;18.03;;
8399;SDS011;4237;47.030;15.396;2024-03-06T14:06:24;21.17;;;18.83;;
8399;SDS011;4237;47.030;15.396;2024-03-06T14:08:53;25.10;;;18.73;;
8399;SDS011;4237;47.030;15.396;2024-03-06T14:11:22;21.93;;;18.27;;
8399;SDS011;4237;47.030;15.396;2024-03-06T14:13:50;23.93;;;17.27;;
8399;SDS011;4237;47.030;15.396;2024-03-06T14:16:19;20.93;;;18.20;;
8399;SDS011;4237;47.030;15.396;2024-03-06T14:18:48;24.07;;;17.80;;
8399;SDS011;4237;47.030;15.396;2024-03-06T14:21:16;20.90;;;17.17;;
8399;SDS011;4237;47.030;15.396;2024-03-06T14:23:45;22.60;;;17.50;;
8399;SDS011;4237;47.030;15.396;2024-03-06T14:26:13;19.40;;;16.97;;
8399;SDS011;4237;47.030;15.396;2024-03-06T14:28:42;23.90;;;17.90;;
8399;SDS011;4237;47.030;15.396;2024-03-06T14:31:11;19.67;;;16.57;;
8399;SDS011;4237;47.030;15.396;2024-03-06T14:33:40;21.27;;;16.57;;
8399;SDS011;4237;47.030;15.396;2024-03-06T14:36:09;20.43;;;16.27;;
8399;SDS011;4237;47.030;15.396;2024-03-06T14:38:37;20.03;;;17.57;;
8399;SDS011;4237;47.030;15.396;2024-03-06T14:41:06;20.10;;;17.33;;
8399;SDS011;4237;47.030;15.396;2024-03-06T14:43:36;21.90;;;18.23;;
8399;SDS011;4237;47.030;15.396;2024-03-06T14:46:07;24.27;;;18.00;;
8399;SDS011;4237;47.030;15.396;2024-03-06T14:48:36;24.70;;;18.23;;
8399;SDS011;4237;47.030;15.396;2024-03-06T14:51:06;24.80;;;17.87;;
8399;SDS011;4237;47.030;15.396;2024-03-06T14:53:35;22.13;;;17.17;;
8399;SDS011;4237;47.030;15.396;2024-03-06T14:56:04;21.70;;;16.47;;
8399;SDS011;4237;47.030;15.396;2024-03-06T14:58:33;19.13;;;15.83;;